Time;durP1;ratioP1;P1;durP2;ratioP2;P2;SDS_P1;SDS_P2;PMS_P1;PMS_P2;Temp;Humidity;BMP_temperature;BMP_pressure;BME280_temperature;BME280_humidity;BME280_pressure;Samples;Min_cycle;Max_cycle;Signal;HPM_P1;HPM_P2
2022/12/24 00:02:11;;;;;;;16.90;13.75;;;6.00;78.20;;;;;;5033395;28;20489;-49
2022/12/24 00:04:36;;;;;;;16.40;12.30;;;5.90;78.40;;;;;;5032700;28;20468;-49
2022/12/24 00:07:02;;;;;;;18.25;13.43;;;5.90;78.40;;;;;;5032745;28;20037;-51
2022/12/24 00:09:28;;;;;;;18.05;13.20;;;5.90;78.60;;;;;;5033167;28;20029;-48
2022/12/24 00:11:53;;;;;;;18.63;12.77;;;5.90;78.60;;;;;;5032852;28;20030;-53
2022/12/24 00:14:19;;;;;;;14.32;10.20;;;6.00;78.90;;;;;;5032978;28;20025;-48
2022/12/24 00:16:45;;;;;;;13.32;10.98;;;6.00;79.00;;;;;;5032690;28;20041;-58
2022/12/24 00:19:11;;;;;;;13.05;10.30;;;6.00;78.90;;;;;;5032998;28;20510;-57
2022/12/24 00:21:37;;;;;;;15.55;12.70;;;6.10;79.00;;;;;;5031711;28;20636;-56
2022/12/24 00:24:04;;;;;;;14.35;12.05;;;6.10;79.00;;;;;;5031284;28;20030;-58
2022/12/24 00:26:31;;;;;;;15.10;12.85;;;6.10;78.90;;;;;;5030984;28;20376;-57
2022/12/24 00:28:57;;;;;;;15.07;11.95;;;6.10;79.10;;;;;;5032525;28;20028;-57
2022/12/24 00:31:22;;;;;;;15.05;11.80;;;6.20;78.70;;;;;;5033215;28;20504;-57
2022/12/24 00:33:49;;;;;;;14.10;11.30;;;6.20;78.70;;;;;;5032397;28;20090;-56
2022/12/24 00:36:14;;;;;;;14.60;11.13;;;6.20;78.70;;;;;;5032522;28;20025;-55
2022/12/24 00:38:40;;;;;;;14.00;11.15;;;6.20;78.60;;;;;;5030959;28;20029;-56
2022/12/24 00:41:23;;;;;;;16.02;11.57;;;6.20;78.50;;;;;;5032762;28;20029;-53
2022/12/24 00:44:08;;;;;;;14.27;11.20;;;6.20;78.50;;;;;;5020398;28;20438;-49
2022/12/24 00:46:36;;;;;;;13.50;11.05;;;6.20;78.50;;;;;;5032461;28;20036;-52
2022/12/24 00:49:02;;;;;;;14.73;10.80;;;6.20;78.70;;;;;;5032251;28;20040;-48
2022/12/24 00:51:28;;;;;;;14.85;12.30;;;6.20;78.90;;;;;;5033805;28;20018;-67
2022/12/24 00:53:53;;;;;;;15.07;12.32;;;6.20;78.90;;;;;;5035175;28;20079;-69
2022/12/24 00:56:20;;;;;;;15.18;11.25;;;6.20;78.80;;;;;;5034470;28;20017;-50
2022/12/24 00:58:46;;;;;;;19.80;13.27;;;6.20;78.80;;;;;;5032001;28;20482;-51
2022/12/24 01:01:11;;;;;;;14.73;11.20;;;6.30;78.80;;;;;;5032891;28;20163;-52
2022/12/24 01:03:37;;;;;;;17.13;13.55;;;6.20;78.80;;;;;;5031968;28;20104;-50
2022/12/24 01:06:05;;;;;;;13.75;10.85;;;6.30;78.90;;;;;;5031956;28;20379;-55
2022/12/24 01:08:31;;;;;;;15.38;12.70;;;6.30;79.00;;;;;;5032063;28;20112;-54
2022/12/24 01:10:57;;;;;;;18.02;12.70;;;6.30;79.00;;;;;;5032674;28;20017;-69
2022/12/24 01:13:23;;;;;;;16.30;12.35;;;6.30;78.80;;;;;;5026653;28;20044;-68
2022/12/24 01:15:49;;;;;;;16.75;12.30;;;6.30;78.80;;;;;;5034858;28;20022;-68
2022/12/24 01:18:15;;;;;;;15.38;10.95;;;6.40;78.80;;;;;;5034916;28;20467;-70
2022/12/24 01:20:41;;;;;;;13.18;10.88;;;6.40;78.60;;;;;;5033889;28;20048;-48
2022/12/24 01:23:07;;;;;;;15.15;10.88;;;6.40;78.40;;;;;;5031503;28;20051;-49
2022/12/24 01:25:32;;;;;;;14.13;10.75;;;6.40;78.40;;;;;;5031737;28;20025;-63
2022/12/24 01:27:58;;;;;;;14.70;11.93;;;6.40;78.40;;;;;;5031781;28;20034;-63
2022/12/24 01:30:24;;;;;;;14.70;11.93;;;6.50;78.30;;;;;;5031386;28;20048;-57
2022/12/24 01:32:49;;;;;;;14.10;11.02;;;6.40;78.20;;;;;;5030774;28;20065;-57
2022/12/24 01:35:15;;;;;;;14.63;11.70;;;6.40;78.40;;;;;;5031241;28;20075;-63
2022/12/24 01:37:41;;;;;;;13.27;11.48;;;6.40;78.40;;;;;;5030601;28;20033;-61
2022/12/24 01:45:46;;;;;;;11.98;9.55;;;6.30;78.80;;;;;;5031572;28;20040;-55
2022/12/24 01:48:50;;;;;;;12.18;9.65;;;6.30;78.90;;;;;;5031585;28;20030;-55
2022/12/24 01:51:41;;;;;;;11.00;9.23;;;6.30;79.00;;;;;;5031215;28;20037;-58
2022/12/24 01:54:12;;;;;;;12.60;10.27;;;6.30;79.10;;;;;;5031082;28;20034;-58
2022/12/24 01:56:45;;;;;;;12.20;9.95;;;6.30;78.90;;;;;;5020188;28;20484;-71
2022/12/24 01:59:13;;;;;;;13.85;10.35;;;6.40;78.70;;;;;;5034255;28;20353;-70
2022/12/24 02:01:39;;;;;;;14.73;11.73;;;6.40;78.60;;;;;;5033964;28;20043;-69
2022/12/24 02:04:25;;;;;;;14.80;11.43;;;6.40;78.20;;;;;;5033596;28;20061;-71
2022/12/24 02:06:50;;;;;;;14.60;12.02;;;6.40;78.00;;;;;;5022601;28;20546;-59
2022/12/24 02:09:17;;;;;;;14.95;11.52;;;6.40;78.10;;;;;;5031395;28;20152;-58
2022/12/24 02:11:43;;;;;;;15.68;11.55;;;6.40;78.10;;;;;;5031285;28;20091;-49
2022/12/24 02:14:10;;;;;;;15.85;10.93;;;6.40;78.20;;;;;;5031042;28;20030;-49
2022/12/24 02:16:44;;;;;;;15.95;11.90;;;6.40;78.10;;;;;;5031259;28;20053;-57
2022/12/24 02:19:25;;;;;;;15.68;11.43;;;6.30;78.10;;;;;;5031167;28;20451;-57
2022/12/24 02:21:53;;;;;;;16.70;12.27;;;6.40;78.20;;;;;;5031105;28;20480;-56
2022/12/24 02:24:37;;;;;;;13.85;10.85;;;6.40;78.00;;;;;;5031587;28;20030;-56
2022/12/24 02:27:24;;;;;;;18.65;14.48;;;6.40;78.00;;;;;;5034056;28;20357;-71
2022/12/24 02:30:30;;;;;;;18.85;13.13;;;6.40;78.00;;;;;;5033953;28;20056;-69
2022/12/24 02:33:05;;;;;;;17.95;12.48;;;6.40;78.10;;;;;;5030319;28;20095;-55
2022/12/24 02:36:05;;;;;;;19.45;15.10;;;6.40;78.20;;;;;;5031176;28;20472;-48
2022/12/24 02:38:41;;;;;;;18.40;14.77;;;6.40;78.20;;;;;;5030804;28;20054;-52
2022/12/24 02:41:13;;;;;;;14.77;12.10;;;6.40;78.30;;;;;;5031841;28;20040;-71
2022/12/24 02:43:42;;;;;;;14.35;11.68;;;6.40;78.50;;;;;;5020761;28;20026;-69
2022/12/24 02:46:17;;;;;;;14.98;11.75;;;6.40;78.80;;;;;;5033798;28;20026;-71
2022/12/24 02:48:46;;;;;;;11.40;8.75;;;6.40;78.80;;;;;;5033672;28;20060;-65
2022/12/24 02:51:12;;;;;;;11.52;9.32;;;6.50;78.80;;;;;;5035863;28;20061;-56
2022/12/24 02:53:39;;;;;;;13.13;10.20;;;6.50;78.90;;;;;;5034557;28;20049;-55
2022/12/24 02:56:14;;;;;;;12.43;10.32;;;6.50;78.90;;;;;;5036146;28;20034;-71
2022/12/24 02:58:55;;;;;;;14.60;10.40;;;6.50;78.90;;;;;;5036588;28;20033;-70
2022/12/24 03:01:54;;;;;;;13.93;11.23;;;6.60;78.80;;;;;;5036318;28;20037;-71
2022/12/24 03:04:38;;;;;;;14.10;11.10;;;6.60;78.60;;;;;;5036127;28;20104;-72
2022/12/24 03:07:26;;;;;;;15.10;11.13;;;6.60;78.60;;;;;;5034750;28;20124;-62
2022/12/24 03:10:28;;;;;;;15.93;11.50;;;6.70;78.70;;;;;;5034042;28;20029;-63
2022/12/24 03:13:03;;;;;;;14.40;11.38;;;6.70;78.50;;;;;;5019637;28;20030;-63
2022/12/24 03:15:30;;;;;;;15.63;11.55;;;6.70;78.40;;;;;;5034026;28;20033;-50
2022/12/24 03:17:59;;;;;;;16.73;13.27;;;6.80;78.20;;;;;;5033866;28;20036;-49
2022/12/24 03:20:32;;;;;;;18.13;12.40;;;6.80;78.00;;;;;;5034109;28;20033;-63
2022/12/24 03:22:58;;;;;;;18.48;13.52;;;6.80;77.90;;;;;;5033765;28;20042;-62
2022/12/24 03:25:25;;;;;;;16.20;13.13;;;6.80;78.00;;;;;;5034076;28;20448;-57
2022/12/24 03:27:51;;;;;;;16.45;13.13;;;6.80;77.80;;;;;;5033774;28;20029;-56
2022/12/24 03:30:17;;;;;;;14.75;12.13;;;6.80;77.80;;;;;;5034031;28;20025;-63
2022/12/24 03:32:43;;;;;;;17.67;13.88;;;6.80;77.70;;;;;;5033894;28;20177;-62
2022/12/24 03:35:10;;;;;;;16.48;13.15;;;6.80;77.70;;;;;;5034251;28;20599;-58
2022/12/24 03:37:36;;;;;;;14.88;11.80;;;6.80;77.80;;;;;;5033692;28;20452;-57
2022/12/24 03:40:02;;;;;;;13.65;11.57;;;6.70;78.00;;;;;;5033844;28;20116;-57
2022/12/24 03:42:28;;;;;;;14.43;11.30;;;6.70;78.30;;;;;;5033808;28;20479;-56
2022/12/24 03:44:54;;;;;;;14.10;11.70;;;6.70;78.40;;;;;;5033301;28;20032;-57
2022/12/24 03:47:19;;;;;;;13.48;11.45;;;6.70;78.40;;;;;;5033892;28;20025;-62
2022/12/24 03:49:45;;;;;;;13.32;10.00;;;6.70;78.40;;;;;;5033503;28;20053;-63
2022/12/24 03:52:10;;;;;;;14.15;11.27;;;6.80;78.40;;;;;;5033736;28;20128;-48
2022/12/24 03:54:36;;;;;;;13.90;10.82;;;6.80;78.50;;;;;;5033427;28;20506;-48
2022/12/24 03:57:02;;;;;;;14.20;11.23;;;6.80;78.30;;;;;;5034781;28;20030;-70
2022/12/24 03:59:28;;;;;;;13.15;11.18;;;6.80;78.90;;;;;;5022564;28;20415;-71
2022/12/24 04:01:53;;;;;;;13.85;11.07;;;6.80;78.00;;;;;;5033412;28;20384;-56
2022/12/24 04:04:19;;;;;;;12.82;10.10;;;6.90;77.80;;;;;;5032942;28;20056;-56
2022/12/24 04:06:44;;;;;;;13.27;10.63;;;6.90;77.80;;;;;;5020318;28;20026;-50
2022/12/24 04:09:10;;;;;;;14.90;10.25;;;6.90;77.80;;;;;;5033105;28;20487;-50
2022/12/24 04:11:36;;;;;;;15.30;11.35;;;6.90;77.50;;;;;;5033210;28;20029;-49
2022/12/24 04:14:01;;;;;;;13.23;11.75;;;7.00;77.40;;;;;;5033453;28;20460;-49
2022/12/24 04:16:27;;;;;;;14.90;11.63;;;6.90;77.30;;;;;;5033660;28;20558;-49
2022/12/24 04:18:52;;;;;;;14.27;11.48;;;6.90;77.00;;;;;;5032685;28;20043;-48
2022/12/24 04:21:18;;;;;;;15.60;12.27;;;6.90;77.00;;;;;;5033538;28;20380;-48
2022/12/24 04:23:44;;;;;;;15.60;12.30;;;6.80;76.90;;;;;;5032632;28;20033;-49
2022/12/24 04:26:11;;;;;;;15.50;12.13;;;6.80;76.90;;;;;;5034338;28;20025;-69
2022/12/24 04:28:38;;;;;;;19.65;13.70;;;6.70;76.90;;;;;;5035762;28;20052;-68
2022/12/24 04:31:06;;;;;;;16.30;12.60;;;6.70;77.00;;;;;;5034042;28;20037;-58
2022/12/24 04:33:33;;;;;;;15.13;11.77;;;6.60;77.10;;;;;;5032327;28;20460;-58
2022/12/24 04:36:01;;;;;;;11.60;9.75;;;6.50;77.20;;;;;;5032540;28;20029;-54
2022/12/24 04:38:27;;;;;;;13.38;10.65;;;6.50;77.40;;;;;;5032209;28;20022;-55
2022/12/24 04:40:59;;;;;;;14.13;11.18;;;6.50;77.50;;;;;;5031957;28;20026;-51
2022/12/24 04:43:25;;;;;;;14.90;11.57;;;6.50;77.70;;;;;;5032521;28;20108;-48
2022/12/24 04:45:51;;;;;;;13.43;11.20;;;6.50;77.90;;;;;;5032599;28;20116;-49
2022/12/24 04:48:17;;;;;;;17.60;13.43;;;6.40;77.90;;;;;;5032716;28;20439;-48
2022/12/24 04:50:42;;;;;;;15.35;13.55;;;6.40;78.10;;;;;;5031969;28;20108;-52
2022/12/24 04:53:08;;;;;;;14.32;12.02;;;6.50;78.20;;;;;;5031348;28;20087;-50
2022/12/24 04:55:33;;;;;;;15.63;13.98;;;6.40;78.30;;;;;;5031358;28;20087;-48
2022/12/24 04:57:59;;;;;;;16.60;13.63;;;6.40;78.50;;;;;;5030847;28;20022;-50
2022/12/24 05:00:25;;;;;;;14.98;12.73;;;6.40;78.60;;;;;;5031363;28;20037;-55
2022/12/24 05:02:51;;;;;;;14.90;12.90;;;6.40;78.70;;;;;;5029673;28;20053;-56
2022/12/24 05:05:16;;;;;;;15.32;12.63;;;6.40;79.00;;;;;;5030773;28;20400;-49
2022/12/24 05:07:42;;;;;;;17.38;13.68;;;6.50;78.90;;;;;;5030101;28;20028;-48
2022/12/24 05:10:09;;;;;;;17.25;13.55;;;6.60;78.70;;;;;;5030885;28;20037;-49
2022/12/24 05:12:35;;;;;;;12.95;11.48;;;6.60;78.40;;;;;;5029865;28;20514;-51
2022/12/24 05:15:01;;;;;;;13.73;11.85;;;6.70;78.20;;;;;;5030493;28;20022;-48
2022/12/24 05:17:26;;;;;;;12.85;11.45;;;6.70;78.00;;;;;;5031824;28;20025;-51
2022/12/24 05:19:52;;;;;;;14.55;12.77;;;6.70;77.90;;;;;;5031671;28;20040;-50
2022/12/24 05:27:46;;;;;;;15.43;12.70;;;6.80;77.90;;;;;;5031341;28;20385;-58
2022/12/24 05:30:12;;;;;;;14.98;11.73;;;6.80;78.00;;;;;;5030795;28;20018;-58
2022/12/24 05:32:37;;;;;;;13.80;11.10;;;6.70;78.00;;;;;;5031837;28;20488;-58
2022/12/24 05:35:03;;;;;;;15.35;12.18;;;6.70;78.00;;;;;;5031595;28;20026;-58
2022/12/24 05:37:29;;;;;;;13.18;10.60;;;6.80;77.80;;;;;;5031343;28;20064;-57
2022/12/24 05:39:55;;;;;;;12.45;10.38;;;6.70;77.80;;;;;;5031376;28;20373;-58
2022/12/24 05:42:20;;;;;;;11.13;9.10;;;6.80;78.10;;;;;;5031874;28;20025;-54
2022/12/24 05:44:46;;;;;;;12.80;9.98;;;6.70;77.90;;;;;;5031250;28;20069;-54
2022/12/24 05:47:11;;;;;;;12.30;10.00;;;6.80;78.10;;;;;;5032096;28;20519;-48
2022/12/24 05:49:37;;;;;;;12.02;9.70;;;6.80;78.00;;;;;;5031199;28;20025;-48
2022/12/24 05:52:03;;;;;;;13.30;10.15;;;6.80;77.80;;;;;;5031558;28;20033;-58
2022/12/24 05:54:28;;;;;;;11.38;9.18;;;6.80;77.60;;;;;;5031867;28;20037;-58
2022/12/24 05:56:54;;;;;;;12.02;9.02;;;6.80;77.50;;;;;;5031351;28;20028;-48
2022/12/24 05:59:19;;;;;;;9.52;7.95;;;6.80;77.50;;;;;;5031343;28;20029;-48
2022/12/24 06:01:47;;;;;;;9.43;7.88;;;6.90;77.50;;;;;;5031349;28;20037;-56
2022/12/24 06:04:12;;;;;;;9.90;8.50;;;6.90;77.40;;;;;;5030729;28;20049;-56
2022/12/24 06:06:38;;;;;;;11.05;8.27;;;6.90;77.30;;;;;;5030532;28;20036;-56
2022/12/24 06:09:04;;;;;;;10.60;8.70;;;7.00;77.00;;;;;;5030874;28;20036;-56
2022/12/24 06:11:29;;;;;;;11.05;8.50;;;7.00;76.80;;;;;;5032399;28;20025;-64
2022/12/24 06:13:56;;;;;;;11.77;9.35;;;7.00;76.60;;;;;;5033251;28;20069;-69
2022/12/24 06:16:23;;;;;;;10.02;8.15;;;6.90;76.40;;;;;;5032263;28;20037;-49
2022/12/24 06:18:49;;;;;;;13.35;10.18;;;6.90;76.20;;;;;;5030259;28;20036;-54
2022/12/24 06:21:15;;;;;;;12.07;10.20;;;6.90;76.10;;;;;;5031201;28;20250;-52
2022/12/24 06:23:43;;;;;;;11.88;9.60;;;6.80;76.10;;;;;;5030923;28;20040;-52
2022/12/24 06:26:11;;;;;;;10.50;8.75;;;6.80;76.00;;;;;;5035167;28;20400;-63
2022/12/24 06:28:37;;;;;;;10.65;8.18;;;6.70;76.10;;;;;;5034808;28;20025;-61
2022/12/24 06:31:04;;;;;;;10.45;8.52;;;6.70;76.30;;;;;;5035121;28;20032;-57
2022/12/24 06:33:33;;;;;;;11.20;9.10;;;6.60;76.30;;;;;;5034681;28;20061;-57
2022/12/24 06:35:59;;;;;;;12.57;9.80;;;6.60;76.50;;;;;;5034777;28;20052;-58
2022/12/24 06:38:25;;;;;;;10.93;9.30;;;6.50;76.60;;;;;;5034705;28;20029;-58
2022/12/24 06:40:52;;;;;;;9.63;8.23;;;6.50;76.90;;;;;;5034177;28;20036;-52
2022/12/24 06:43:17;;;;;;;9.43;7.90;;;6.40;77.20;;;;;;5034705;28;20034;-50
2022/12/24 06:45:46;;;;;;;8.55;6.95;;;6.40;77.50;;;;;;5034744;28;20083;-56
2022/12/24 06:48:13;;;;;;;8.93;7.22;;;6.40;77.70;;;;;;5032321;28;20039;-57
2022/12/24 06:50:39;;;;;;;8.73;6.90;;;6.40;77.90;;;;;;5033482;28;20049;-58
2022/12/24 06:53:05;;;;;;;8.77;7.57;;;6.50;77.70;;;;;;5034662;28;20029;-57
2022/12/24 06:55:31;;;;;;;12.25;9.20;;;6.60;77.60;;;;;;5049555;28;20018;-56
2022/12/24 06:57:57;;;;;;;10.82;8.43;;;6.60;77.50;;;;;;5033826;28;20372;-55
2022/12/24 07:00:22;;;;;;;11.50;9.27;;;6.70;77.40;;;;;;5034443;28;20375;-61
2022/12/24 07:02:48;;;;;;;8.13;7.18;;;6.60;77.50;;;;;;5033703;28;20088;-63
2022/12/24 07:05:15;;;;;;;10.60;8.48;;;6.70;77.70;;;;;;5034497;28;20029;-52
2022/12/24 07:07:43;;;;;;;9.07;7.53;;;6.70;77.80;;;;;;5034277;28;20083;-53
2022/12/24 07:10:14;;;;;;;11.25;8.65;;;6.70;77.70;;;;;;5033049;28;20026;-50
2022/12/24 07:12:39;;;;;;;11.73;9.00;;;6.80;77.60;;;;;;5033793;28;20021;-58
2022/12/24 07:15:05;;;;;;;9.48;7.82;;;6.80;77.30;;;;;;5033942;28;20040;-57
2022/12/24 07:17:31;;;;;;;11.73;9.15;;;6.80;77.00;;;;;;5034104;28;20017;-57
2022/12/24 07:19:57;;;;;;;11.50;9.50;;;6.90;76.90;;;;;;5033984;28;20022;-57
2022/12/24 07:22:22;;;;;;;12.65;9.15;;;6.90;76.80;;;;;;5033969;28;20036;-52
2022/12/24 07:24:48;;;;;;;10.63;8.77;;;6.90;76.60;;;;;;5033932;28;20037;-53
2022/12/24 07:27:13;;;;;;;11.05;8.30;;;6.90;76.60;;;;;;5033863;28;20030;-55
2022/12/24 07:29:40;;;;;;;9.77;7.32;;;6.90;76.60;;;;;;5033139;28;20030;-55
2022/12/24 07:32:06;;;;;;;9.38;7.38;;;6.90;76.60;;;;;;5034141;28;20021;-57
2022/12/24 07:34:31;;;;;;;7.53;6.03;;;7.00;76.80;;;;;;5033410;28;20032;-56
2022/12/24 07:36:57;;;;;;;7.72;5.93;;;7.00;76.70;;;;;;5033775;28;20025;-55
2022/12/24 07:39:22;;;;;;;7.50;6.28;;;7.00;76.80;;;;;;5033971;28;20140;-54
2022/12/24 07:41:49;;;;;;;7.80;6.88;;;7.00;76.80;;;;;;5033610;28;20528;-55
2022/12/24 07:44:15;;;;;;;8.90;6.82;;;7.10;76.70;;;;;;5033747;28;20033;-56
2022/12/24 07:46:42;;;;;;;9.23;7.53;;;7.20;76.60;;;;;;5033972;28;20034;-57
2022/12/24 07:49:08;;;;;;;9.38;7.93;;;7.20;76.40;;;;;;5033672;28;20079;-57
2022/12/24 07:51:33;;;;;;;10.25;8.98;;;7.20;76.30;;;;;;5034232;28;20431;-56
2022/12/24 07:53:59;;;;;;;9.05;8.10;;;7.20;76.20;;;;;;5033272;28;20064;-57
2022/12/24 07:56:25;;;;;;;9.73;8.73;;;7.30;76.40;;;;;;5034127;28;20148;-64
2022/12/24 07:58:51;;;;;;;12.10;10.02;;;7.30;76.50;;;;;;5033625;28;20141;-63
2022/12/24 08:01:17;;;;;;;10.60;9.48;;;7.20;76.50;;;;;;5033515;28;20038;-57
2022/12/24 08:03:43;;;;;;;10.65;9.35;;;7.30;76.70;;;;;;5033348;28;20049;-58
2022/12/24 08:06:09;;;;;;;11.02;9.93;;;7.30;76.80;;;;;;5034718;28;20025;-71
2022/12/24 08:08:35;;;;;;;12.85;11.55;;;7.30;76.70;;;;;;5037592;28;20380;-66
2022/12/24 08:11:03;;;;;;;12.48;11.27;;;7.30;76.70;;;;;;5035412;28;20086;-58
2022/12/24 08:13:29;;;;;;;11.10;10.00;;;7.30;76.70;;;;;;5033611;28;20391;-57
2022/12/24 08:15:55;;;;;;;10.10;8.98;;;7.30;76.50;;;;;;5034348;28;20036;-71
2022/12/24 08:18:20;;;;;;;10.95;8.77;;;7.30;76.60;;;;;;5036874;28;20452;-70
2022/12/24 08:20:46;;;;;;;8.85;7.45;;;7.40;76.50;;;;;;5035798;28;20034;-56
2022/12/24 08:23:12;;;;;;;7.95;7.13;;;7.40;76.50;;;;;;5033226;28;20035;-56
2022/12/24 08:25:42;;;;;;;8.43;6.97;;;7.40;76.50;;;;;;5033511;28;20368;-62
2022/12/24 08:28:09;;;;;;;8.73;6.60;;;7.40;76.30;;;;;;5033290;28;20423;-64
2022/12/24 08:30:34;;;;;;;9.13;6.85;;;7.50;76.40;;;;;;5023343;28;20029;-52
2022/12/24 08:33:00;;;;;;;8.30;6.68;;;7.50;76.40;;;;;;5022190;28;20331;-50
2022/12/24 08:35:26;;;;;;;8.13;6.57;;;7.50;76.40;;;;;;5029496;28;20070;-53
2022/12/24 08:37:52;;;;;;;8.82;7.50;;;7.50;76.30;;;;;;5031575;28;20025;-51
2022/12/24 08:40:17;;;;;;;10.05;8.38;;;7.50;76.20;;;;;;5029238;28;20029;-56
2022/12/24 08:42:43;;;;;;;11.23;9.25;;;7.50;76.30;;;;;;5027653;28;20395;-56
2022/12/24 08:45:11;;;;;;;11.13;10.02;;;7.50;76.30;;;;;;5030920;28;20521;-57
2022/12/24 08:47:38;;;;;;;11.85;10.60;;;7.50;76.20;;;;;;5032342;28;20036;-68
2022/12/24 08:50:05;;;;;;;13.40;12.00;;;7.50;76.30;;;;;;5029288;28;20419;-67
2022/12/24 08:52:31;;;;;;;14.15;12.73;;;7.60;76.40;;;;;;5027518;28;20045;-61
2022/12/24 08:54:57;;;;;;;15.40;13.80;;;7.60;76.50;;;;;;5029219;28;20022;-71
2022/12/24 08:57:22;;;;;;;15.98;14.25;;;7.60;76.40;;;;;;5030533;28;20470;-58
2022/12/24 08:59:48;;;;;;;15.00;13.52;;;7.60;76.40;;;;;;5030687;28;20502;-57
2022/12/24 09:02:14;;;;;;;15.35;13.75;;;7.60;76.30;;;;;;5023819;28;20068;-51
2022/12/24 09:04:39;;;;;;;14.40;12.90;;;7.60;76.30;;;;;;5021327;28;20034;-52
2022/12/24 09:07:06;;;;;;;13.80;12.32;;;7.60;76.40;;;;;;5018393;28;20030;-58
2022/12/24 09:09:32;;;;;;;11.73;10.52;;;7.60;76.40;;;;;;5032568;28;20037;-58
2022/12/24 09:11:57;;;;;;;12.95;11.38;;;7.60;76.40;;;;;;5026723;28;20495;-57
2022/12/24 09:14:23;;;;;;;13.10;11.70;;;7.60;76.40;;;;;;5033083;28;20045;-58
2022/12/24 09:16:48;;;;;;;13.32;11.95;;;7.60;76.50;;;;;;5035911;28;20040;-71
2022/12/24 09:19:14;;;;;;;15.80;14.20;;;7.60;76.70;;;;;;5037497;28;20040;-71
2022/12/24 09:21:40;;;;;;;15.95;14.35;;;7.70;76.80;;;;;;5032145;28;20037;-55
2022/12/24 09:24:05;;;;;;;17.67;15.82;;;7.60;76.90;;;;;;5029733;28;20040;-54
2022/12/24 09:26:31;;;;;;;18.20;16.38;;;7.60;76.90;;;;;;5019379;28;20112;-55
2022/12/24 09:28:59;;;;;;;17.27;15.43;;;7.60;76.90;;;;;;5023215;28;20029;-57
2022/12/24 09:31:26;;;;;;;14.63;13.13;;;7.60;77.10;;;;;;5024851;28;20034;-55
2022/12/24 09:33:52;;;;;;;12.35;11.07;;;7.60;77.40;;;;;;5022586;28;20403;-56
2022/12/24 09:36:19;;;;;;;10.18;8.93;;;7.50;77.40;;;;;;5022747;28;20060;-61
2022/12/24 09:38:45;;;;;;;9.30;7.88;;;7.50;78.30;;;;;;5022375;28;20025;-62
2022/12/24 09:41:20;;;;;;;9.73;7.78;;;7.60;77.60;;;;;;5017761;28;20029;-62
2022/12/24 09:43:52;;;;;;;9.07;7.80;;;7.60;77.60;;;;;;5020637;28;20388;-61
2022/12/24 09:46:26;;;;;;;8.50;6.85;;;7.70;77.50;;;;;;5021230;28;20029;-56
2022/12/24 09:48:57;;;;;;;9.15;7.53;;;7.80;77.50;;;;;;5021447;28;20034;-56
2022/12/24 09:51:29;;;;;;;9.13;7.75;;;7.80;77.30;;;;;;5020324;28;20539;-56
2022/12/24 09:53:58;;;;;;;;;;;7.90;77.00;;;;;;5019937;28;20029;-54
2022/12/24 09:56:27;;;;;;;9.63;7.65;;;7.90;76.80;;;;;;5020511;28;19916;-50
2022/12/24 09:59:04;;;;;;;9.45;7.07;;;7.90;76.80;;;;;;5019536;28;20488;-50
2022/12/24 10:01:32;;;;;;;8.95;7.60;;;7.90;76.80;;;;;;5019276;28;20030;-56
2022/12/24 10:04:04;;;;;;;7.68;6.60;;;8.00;77.00;;;;;;5021302;28;20557;-57
2022/12/24 10:06:41;;;;;;;8.60;7.70;;;7.90;77.10;;;;;;5018331;28;20076;-55
2022/12/24 10:09:28;;;;;;;8.88;7.72;;;8.00;77.20;;;;;;5018120;28;20037;-57
2022/12/24 10:12:08;;;;;;;9.60;8.25;;;8.10;77.00;;;;;;5018223;28;20030;-57
2022/12/24 10:14:53;;;;;;;9.23;8.25;;;8.10;76.80;;;;;;5021924;28;20033;-58
2022/12/24 10:17:30;;;;;;;8.38;7.38;;;8.10;76.50;;;;;;5019847;28;20121;-55
2022/12/24 10:20:24;;;;;;;8.00;7.10;;;8.20;76.50;;;;;;5020280;28;20057;-57
2022/12/24 10:22:56;;;;;;;11.48;8.75;;;8.30;76.30;;;;;;5021191;28;20044;-52
2022/12/24 10:25:36;;;;;;;8.43;7.50;;;8.30;76.30;;;;;;5021787;28;20045;-49
2022/12/24 10:28:12;;;;;;;10.23;8.80;;;8.30;76.20;;;;;;5020685;28;20037;-54
2022/12/24 10:30:38;;;;;;;8.85;7.95;;;8.30;76.00;;;;;;5020513;28;20117;-71
2022/12/24 10:33:18;;;;;;;10.20;8.18;;;8.30;76.00;;;;;;5024111;28;20072;-71
2022/12/24 10:35:49;;;;;;;7.70;6.68;;;8.30;75.80;;;;;;5023422;28;20026;-49
2022/12/24 10:38:15;;;;;;;;;;;8.30;75.90;;;;;;5021219;28;20026;-50
2022/12/24 10:40:44;;;;;;;6.50;5.65;;;8.20;75.80;;;;;;5019302;28;20393;-47
2022/12/24 10:43:15;;;;;;;6.68;5.38;;;8.30;76.00;;;;;;5020357;28;20499;-47
2022/12/24 10:45:46;;;;;;;7.05;5.90;;;8.30;75.90;;;;;;5021226;28;20034;-68
2022/12/24 10:48:27;;;;;;;7.00;5.67;;;8.30;75.80;;;;;;5022791;28;20096;-66
2022/12/24 10:51:01;;;;;;;7.60;6.78;;;8.30;75.80;;;;;;5021389;28;20282;-51
2022/12/24 10:53:41;;;;;;;7.80;6.63;;;8.30;75.80;;;;;;5031344;28;20396;-50
2022/12/24 10:56:10;;;;;;;8.88;7.95;;;8.40;75.80;;;;;;5029267;28;20111;-48
2022/12/24 10:58:43;;;;;;;10.80;9.70;;;8.40;75.70;;;;;;5029590;28;20028;-51
2022/12/24 11:01:09;;;;;;;10.88;9.70;;;8.40;75.50;;;;;;5030299;28;20548;-47
2022/12/24 11:03:36;;;;;;;10.98;9.88;;;8.40;75.30;;;;;;5030791;28;20140;-52
2022/12/24 11:06:08;;;;;;;8.82;7.93;;;8.30;75.20;;;;;;5029160;28;20022;-50
2022/12/24 11:08:37;;;;;;;8.82;7.90;;;8.30;75.30;;;;;;5017935;28;20025;-51
2022/12/24 11:11:20;;;;;;;7.63;6.80;;;8.30;75.50;;;;;;5030802;28;20021;-53
2022/12/24 11:13:54;;;;;;;6.32;5.70;;;8.30;75.50;;;;;;5032326;28;20419;-53
2022/12/24 11:16:34;;;;;;;6.95;6.25;;;8.30;75.50;;;;;;5032717;28;20062;-55
2022/12/24 11:19:05;;;;;;;7.05;5.70;;;8.30;75.50;;;;;;5032061;28;20431;-55
2022/12/24 11:21:34;;;;;;;8.02;6.65;;;8.30;76.30;;;;;;5032258;28;20487;-56
2022/12/24 11:24:30;;;;;;;7.60;6.18;;;8.30;75.80;;;;;;5029504;28;20041;-56
2022/12/24 11:27:22;;;;;;;8.15;6.35;;;8.30;75.90;;;;;;5029243;28;20586;-56
2022/12/24 11:29:48;;;;;;;7.55;6.13;;;8.30;76.00;;;;;;5032425;28;20033;-56
2022/12/24 11:32:21;;;;;;;8.45;6.47;;;8.30;76.20;;;;;;5035148;28;20158;-69
2022/12/24 11:34:47;;;;;;;7.32;6.53;;;8.30;76.30;;;;;;5034684;28;20040;-61
2022/12/24 11:37:22;;;;;;;7.35;6.13;;;8.20;76.30;;;;;;5035155;28;20030;-68
2022/12/24 11:39:57;;;;;;;7.00;5.68;;;8.20;76.50;;;;;;5034952;28;20495;-68
2022/12/24 11:42:25;;;;;;;6.95;6.25;;;8.20;76.60;;;;;;5036401;28;20061;-65
2022/12/24 11:44:51;;;;;;;7.30;5.70;;;8.30;76.70;;;;;;5036567;28;20107;-71
2022/12/24 11:47:16;;;;;;;7.68;6.00;;;8.30;76.70;;;;;;5036121;28;20021;-66
2022/12/24 11:49:42;;;;;;;8.68;6.25;;;8.30;76.50;;;;;;5034888;28;20452;-64
2022/12/24 11:52:10;;;;;;;7.63;6.10;;;8.40;76.30;;;;;;5033850;28;20033;-55
2022/12/24 11:54:55;;;;;;;5.93;5.32;;;8.40;76.10;;;;;;5033124;28;20013;-53
2022/12/24 11:57:24;;;;;;;7.95;7.10;;;8.40;76.10;;;;;;5033404;28;20491;-53
2022/12/24 11:59:51;;;;;;;7.70;5.60;;;8.40;76.20;;;;;;5032752;28;20056;-55
2022/12/24 12:02:27;;;;;;;7.13;6.13;;;8.50;76.30;;;;;;5032893;28;20040;-56
2022/12/24 12:05:06;;;;;;;8.57;6.25;;;8.50;76.20;;;;;;5018752;28;20033;-56
2022/12/24 12:07:37;;;;;;;8.55;6.63;;;8.50;76.20;;;;;;5024479;28;20040;-55
2022/12/24 12:10:05;;;;;;;7.90;6.15;;;8.50;76.30;;;;;;5030067;28;20064;-56
2022/12/24 12:12:35;;;;;;;10.45;6.78;;;8.50;76.30;;;;;;5028972;28;20486;-55
2022/12/24 12:15:11;;;;;;;8.73;6.90;;;8.50;76.00;;;;;;5029601;28;20021;-56
2022/12/24 12:18:07;;;;;;;10.05;7.57;;;8.50;76.10;;;;;;5030134;28;20518;-55
2022/12/24 12:20:44;;;;;;;10.07;8.30;;;8.50;76.00;;;;;;5013924;28;20033;-63
2022/12/24 12:23:24;;;;;;;9.82;7.63;;;8.50;76.00;;;;;;5034311;28;20029;-69
2022/12/24 12:26:17;;;;;;;10.33;7.97;;;8.50;76.10;;;;;;5032442;28;20095;-71
2022/12/24 12:28:52;;;;;;;9.88;7.72;;;8.40;76.00;;;;;;5027147;28;20040;-66
2022/12/24 12:31:47;;;;;;;10.02;7.55;;;8.40;76.20;;;;;;5026466;28;20040;-68
2022/12/24 12:34:15;;;;;;;12.43;8.13;;;8.40;76.30;;;;;;5031633;28;20526;-69
2022/12/24 12:36:45;;;;;;;9.50;6.57;;;8.30;76.40;;;;;;5025486;28;20460;-51
2022/12/24 12:39:11;;;;;;;8.80;6.77;;;8.30;76.60;;;;;;5031428;28;20045;-48
2022/12/24 12:42:16;;;;;;;10.02;7.30;;;8.30;76.70;;;;;;5016272;28;20034;-52
2022/12/24 12:45:00;;;;;;;11.75;9.15;;;8.30;76.80;;;;;;5026853;28;20025;-53
2022/12/24 12:47:35;;;;;;;11.70;8.63;;;8.30;76.90;;;;;;5033584;28;20038;-58
2022/12/24 12:50:07;;;;;;;12.15;9.02;;;8.30;76.90;;;;;;5032910;28;20382;-58
2022/12/24 12:52:54;;;;;;;11.52;8.80;;;8.30;77.00;;;;;;5033128;28;20025;-57
2022/12/24 12:55:32;;;;;;;11.82;10.57;;;8.20;77.00;;;;;;5030114;28;20037;-58
2022/12/24 12:58:07;;;;;;;20.10;14.15;;;8.20;77.00;;;;;;5032509;28;20025;-58
2022/12/24 13:00:37;;;;;;;16.33;14.00;;;8.20;77.10;;;;;;5033016;28;20063;-55
2022/12/24 13:03:05;;;;;;;15.23;13.05;;;8.10;77.40;;;;;;5032615;28;20049;-56
2022/12/24 13:05:37;;;;;;;19.42;16.27;;;8.10;77.60;;;;;;5033231;28;20017;-50
2022/12/24 13:08:27;;;;;;;15.65;13.10;;;8.00;77.70;;;;;;5032879;28;20498;-52
2022/12/24 13:11:04;;;;;;;17.42;13.88;;;8.00;77.70;;;;;;5021679;28;20029;-53